sensor_id;sensor_type;location;lat;lon;timestamp;pressure;altitude;pressure_sealevel;temperature;humidity
84374;BME280;74563;52.206;14.630;2024-01-06T00:00:49;100369.91;;;3.44;84.80
84374;BME280;74563;52.206;14.630;2024-01-06T00:03:15;100400.34;;;3.04;87.57
84374;BME280;74563;52.206;14.630;2024-01-06T00:05:40;100399.66;;;3.02;87.96
84374;BME280;74563;52.206;14.630;2024-01-06T00:08:05;100395.38;;;2.68;89.05
84374;BME280;74563;52.206;14.630;2024-01-06T00:10:31;100396.03;;;3.57;85.06
84374;BME280;74563;52.206;14.630;2024-01-06T00:12:56;100393.00;;;2.65;88.97
84374;BME280;74563;52.206;14.630;2024-01-06T00:15:22;100398.03;;;3.96;83.76
84374;BME280;74563;52.206;14.630;2024-01-06T00:17:48;100403.84;;;3.47;84.53
84374;BME280;74563;52.206;14.630;2024-01-06T00:20:13;100404.66;;;3.59;84.01
84374;BME280;74563;52.206;14.630;2024-01-06T00:22:39;100401.38;;;3.98;83.60
84374;BME280;74563;52.206;14.630;2024-01-06T00:25:04;100402.53;;;3.10;86.35
84374;BME280;74563;52.206;14.630;2024-01-06T00:27:30;100409.47;;;4.07;82.24
84374;BME280;74563;52.206;14.630;2024-01-06T00:29:55;100405.72;;;3.57;84.70
84374;BME280;74563;52.206;14.630;2024-01-06T00:32:20;100405.72;;;3.88;83.79
84374;BME280;74563;52.206;14.630;2024-01-06T00:34:46;100399.31;;;4.02;82.29
84374;BME280;74563;52.206;14.630;2024-01-06T00:37:12;100414.47;;;3.57;85.15
84374;BME280;74563;52.206;14.630;2024-01-06T00:39:37;100405.81;;;3.77;83.58
84374;BME280;74563;52.206;14.630;2024-01-06T00:42:03;100410.75;;;4.84;80.21
84374;BME280;74563;52.206;14.630;2024-01-06T00:44:28;100383.72;;;3.15;84.31
84374;BME280;74563;52.206;14.630;2024-01-06T00:46:53;100383.28;;;3.52;83.90
84374;BME280;74563;52.206;14.630;2024-01-06T00:49:19;100420.53;;;4.21;82.69
84374;BME280;74563;52.206;14.630;2024-01-06T00:51:44;100422.16;;;3.49;84.61
84374;BME280;74563;52.206;14.630;2024-01-06T00:54:09;100425.06;;;3.98;83.87
84374;BME280;74563;52.206;14.630;2024-01-06T00:56:34;100423.69;;;4.15;82.79
84374;BME280;74563;52.206;14.630;2024-01-06T00:59:00;100413.03;;;2.99;86.82
84374;BME280;74563;52.206;14.630;2024-01-06T01:01:25;100432.69;;;3.49;85.35
84374;BME280;74563;52.206;14.630;2024-01-06T01:03:51;100433.97;;;3.54;85.14
84374;BME280;74563;52.206;14.630;2024-01-06T01:06:16;100445.59;;;3.84;84.21
84374;BME280;74563;52.206;14.630;2024-01-06T01:08:41;100421.91;;;3.84;83.83
84374;BME280;74563;52.206;14.630;2024-01-06T01:11:07;100445.38;;;3.76;84.85
84374;BME280;74563;52.206;14.630;2024-01-06T01:13:32;100443.31;;;4.11;82.51
84374;BME280;74563;52.206;14.630;2024-01-06T01:15:58;100444.31;;;3.99;83.16
84374;BME280;74563;52.206;14.630;2024-01-06T01:18:23;100439.00;;;3.89;83.89
84374;BME280;74563;52.206;14.630;2024-01-06T01:20:48;100446.75;;;4.23;82.58
84374;BME280;74563;52.206;14.630;2024-01-06T01:23:14;100444.44;;;4.09;82.65
84374;BME280;74563;52.206;14.630;2024-01-06T01:25:39;100446.97;;;3.99;82.93
84374;BME280;74563;52.206;14.630;2024-01-06T01:28:04;100434.63;;;3.68;84.12
84374;BME280;74563;52.206;14.630;2024-01-06T01:30:30;100451.75;;;4.26;82.54
84374;BME280;74563;52.206;14.630;2024-01-06T01:32:57;100440.75;;;4.00;83.72
84374;BME280;74563;52.206;14.630;2024-01-06T01:35:22;100442.88;;;4.27;81.41
84374;BME280;74563;52.206;14.630;2024-01-06T01:37:48;100427.09;;;3.95;81.88
84374;BME280;74563;52.206;14.630;2024-01-06T01:40:13;100442.09;;;3.94;82.89
84374;BME280;74563;52.206;14.630;2024-01-06T01:42:38;100445.41;;;3.65;84.30
84374;BME280;74563;52.206;14.630;2024-01-06T01:45:04;100420.16;;;4.26;81.01
84374;BME280;74563;52.206;14.630;2024-01-06T01:47:30;100445.19;;;4.41;81.70
84374;BME280;74563;52.206;14.630;2024-01-06T01:49:55;100450.72;;;4.17;82.95
84374;BME280;74563;52.206;14.630;2024-01-06T01:52:21;100460.25;;;4.50;81.01
84374;BME280;74563;52.206;14.630;2024-01-06T01:54:47;100447.59;;;3.91;82.40
84374;BME280;74563;52.206;14.630;2024-01-06T01:57:14;100453.72;;;3.49;84.61
84374;BME280;74563;52.206;14.630;2024-01-06T01:59:40;100442.69;;;3.98;82.54
84374;BME280;74563;52.206;14.630;2024-01-06T02:02:06;100426.88;;;4.39;81.73
84374;BME280;74563;52.206;14.630;2024-01-06T02:04:31;100452.47;;;4.79;79.51
84374;BME280;74563;52.206;14.630;2024-01-06T02:06:57;100455.66;;;4.31;81.26
84374;BME280;74563;52.206;14.630;2024-01-06T02:09:22;100456.63;;;4.51;80.83
84374;BME280;74563;52.206;14.630;2024-01-06T02:11:52;100459.94;;;3.91;82.81
84374;BME280;74563;52.206;14.630;2024-01-06T02:14:17;100464.41;;;4.11;82.38
84374;BME280;74563;52.206;14.630;2024-01-06T02:16:42;100455.28;;;3.83;83.44
84374;BME280;74563;52.206;14.630;2024-01-06T02:19:10;100463.56;;;4.31;81.72
84374;BME280;74563;52.206;14.630;2024-01-06T02:21:41;100456.28;;;4.03;83.97
84374;BME280;74563;52.206;14.630;2024-01-06T02:24:06;100442.69;;;4.39;80.79
84374;BME280;74563;52.206;14.630;2024-01-06T02:26:32;100459.75;;;4.03;83.22
84374;BME280;74563;52.206;14.630;2024-01-06T02:28:57;100451.88;;;4.24;81.70
84374;BME280;74563;52.206;14.630;2024-01-06T02:31:22;100450.03;;;3.83;83.22
84374;BME280;74563;52.206;14.630;2024-01-06T02:33:48;100449.59;;;3.67;83.47
84374;BME280;74563;52.206;14.630;2024-01-06T02:36:13;100455.38;;;3.93;83.34
84374;BME280;74563;52.206;14.630;2024-01-06T02:38:38;100454.75;;;4.63;79.23
84374;BME280;74563;52.206;14.630;2024-01-06T02:41:04;100449.13;;;4.05;83.75
84374;BME280;74563;52.206;14.630;2024-01-06T02:43:29;100455.72;;;4.62;79.79
84374;BME280;74563;52.206;14.630;2024-01-06T02:45:54;100460.09;;;4.10;81.54
84374;BME280;74563;52.206;14.630;2024-01-06T02:48:19;100465.94;;;3.39;84.83
84374;BME280;74563;52.206;14.630;2024-01-06T02:50:44;100462.19;;;4.16;82.69
84374;BME280;74563;52.206;14.630;2024-01-06T02:53:10;100465.59;;;3.75;82.87
84374;BME280;74563;52.206;14.630;2024-01-06T02:55:37;100482.00;;;4.11;82.74
84374;BME280;74563;52.206;14.630;2024-01-06T02:58:03;100488.94;;;3.69;83.30
84374;BME280;74563;52.206;14.630;2024-01-06T03:00:28;100482.41;;;3.95;82.88
84374;BME280;74563;52.206;14.630;2024-01-06T03:02:53;100477.97;;;4.27;80.64
84374;BME280;74563;52.206;14.630;2024-01-06T03:05:18;100484.81;;;3.44;83.82
84374;BME280;74563;52.206;14.630;2024-01-06T03:07:44;100487.53;;;3.65;83.78
84374;BME280;74563;52.206;14.630;2024-01-06T03:10:09;100470.66;;;3.99;81.65
84374;BME280;74563;52.206;14.630;2024-01-06T03:12:35;100478.28;;;4.54;80.49
84374;BME280;74563;52.206;14.630;2024-01-06T03:15:00;100452.91;;;3.26;83.17
84374;BME280;74563;52.206;14.630;2024-01-06T03:17:25;100481.94;;;3.47;84.01
84374;BME280;74563;52.206;14.630;2024-01-06T03:19:51;100471.72;;;2.99;85.72
84374;BME280;74563;52.206;14.630;2024-01-06T03:22:16;100491.41;;;3.38;84.51
84374;BME280;74563;52.206;14.630;2024-01-06T03:24:42;100493.50;;;3.67;84.08
84374;BME280;74563;52.206;14.630;2024-01-06T03:27:07;100490.31;;;3.41;84.43
84374;BME280;74563;52.206;14.630;2024-01-06T03:29:33;100497.88;;;3.12;85.83
84374;BME280;74563;52.206;14.630;2024-01-06T03:31:59;100502.75;;;2.94;85.97
84374;BME280;74563;52.206;14.630;2024-01-06T03:34:24;100490.00;;;2.90;85.85
84374;BME280;74563;52.206;14.630;2024-01-06T03:36:49;100495.13;;;3.25;85.01
84374;BME280;74563;52.206;14.630;2024-01-06T03:39:15;100486.16;;;3.38;84.02
84374;BME280;74563;52.206;14.630;2024-01-06T03:41:40;100493.56;;;3.11;84.78
84374;BME280;74563;52.206;14.630;2024-01-06T03:44:05;100498.66;;;3.46;83.19
84374;BME280;74563;52.206;14.630;2024-01-06T03:46:32;100487.09;;;3.48;83.83
84374;BME280;74563;52.206;14.630;2024-01-06T03:48:58;100496.53;;;3.51;84.17
84374;BME280;74563;52.206;14.630;2024-01-06T03:51:23;100499.22;;;3.83;83.04
84374;BME280;74563;52.206;14.630;2024-01-06T03:53:48;100505.34;;;3.72;83.35
84374;BME280;74563;52.206;14.630;2024-01-06T03:56:14;100502.97;;;3.58;83.49
84374;BME280;74563;52.206;14.630;2024-01-06T03:58:39;100513.50;;;3.36;84.23
84374;BME280;74563;52.206;14.630;2024-01-06T04:01:04;100500.50;;;3.12;85.43
84374;BME280;74563;52.206;14.630;2024-01-06T04:03:30;100508.88;;;3.17;85.89
84374;BME280;74563;52.206;14.630;2024-01-06T04:05:55;100503.63;;;3.17;85.42
84374;BME280;74563;52.206;14.630;2024-01-06T04:08:20;100499.81;;;3.75;83.76
84374;BME280;74563;52.206;14.630;2024-01-06T04:10:45;100506.56;;;3.57;83.42
84374;BME280;74563;52.206;14.630;2024-01-06T04:13:11;100506.25;;;4.25;80.16
84374;BME280;74563;52.206;14.630;2024-01-06T04:15:36;100524.66;;;3.17;84.91
84374;BME280;74563;52.206;14.630;2024-01-06T04:18:03;100512.41;;;4.03;81.70
84374;BME280;74563;52.206;14.630;2024-01-06T04:20:29;100504.81;;;3.24;83.04
84374;BME280;74563;52.206;14.630;2024-01-06T04:22:54;100528.53;;;3.78;82.18
84374;BME280;74563;52.206;14.630;2024-01-06T04:25:19;100523.69;;;3.40;83.47
84374;BME280;74563;52.206;14.630;2024-01-06T04:27:45;100520.56;;;3.46;84.20
84374;BME280;74563;52.206;14.630;2024-01-06T04:30:12;100521.47;;;3.68;82.36
84374;BME280;74563;52.206;14.630;2024-01-06T04:32:37;100513.59;;;3.57;82.66
84374;BME280;74563;52.206;14.630;2024-01-06T04:35:03;100524.50;;;3.63;82.86
84374;BME280;74563;52.206;14.630;2024-01-06T04:37:28;100527.75;;;3.44;83.64
84374;BME280;74563;52.206;14.630;2024-01-06T04:39:54;100519.97;;;3.43;84.15
84374;BME280;74563;52.206;14.630;2024-01-06T04:42:19;100519.75;;;3.13;83.78
84374;BME280;74563;52.206;14.630;2024-01-06T04:44:47;100528.28;;;3.81;82.21
84374;BME280;74563;52.206;14.630;2024-01-06T04:47:12;100524.75;;;4.03;81.44
84374;BME280;74563;52.206;14.630;2024-01-06T04:49:37;100528.94;;;3.40;83.84
84374;BME280;74563;52.206;14.630;2024-01-06T04:52:03;100537.16;;;3.80;80.70
84374;BME280;74563;52.206;14.630;2024-01-06T04:54:28;100527.94;;;4.18;79.98
84374;BME280;74563;52.206;14.630;2024-01-06T04:56:53;100550.34;;;4.12;80.05
84374;BME280;74563;52.206;14.630;2024-01-06T04:59:19;100549.59;;;4.21;81.27
84374;BME280;74563;52.206;14.630;2024-01-06T05:01:44;100538.47;;;4.18;79.48
84374;BME280;74563;52.206;14.630;2024-01-06T05:04:09;100555.78;;;4.31;79.83
84374;BME280;74563;52.206;14.630;2024-01-06T05:06:34;100564.69;;;3.54;82.91
84374;BME280;74563;52.206;14.630;2024-01-06T05:09:00;100565.72;;;3.85;82.59
84374;BME280;74563;52.206;14.630;2024-01-06T05:11:25;100563.66;;;4.84;77.43
84374;BME280;74563;52.206;14.630;2024-01-06T05:13:50;100574.94;;;3.90;80.30
84374;BME280;74563;52.206;14.630;2024-01-06T05:16:15;100568.06;;;4.10;80.10
84374;BME280;74563;52.206;14.630;2024-01-06T05:18:44;100583.91;;;4.31;80.07
84374;BME280;74563;52.206;14.630;2024-01-06T05:21:09;100568.88;;;4.95;78.15
84374;BME280;74563;52.206;14.630;2024-01-06T05:23:34;100583.13;;;4.19;80.22
84374;BME280;74563;52.206;14.630;2024-01-06T05:26:00;100579.16;;;4.57;78.82
84374;BME280;74563;52.206;14.630;2024-01-06T05:28:25;100582.00;;;3.68;82.57
84374;BME280;74563;52.206;14.630;2024-01-06T05:30:50;100582.63;;;4.78;79.17
84374;BME280;74563;52.206;14.630;2024-01-06T05:33:15;100578.66;;;3.77;82.50
84374;BME280;74563;52.206;14.630;2024-01-06T05:35:41;100585.53;;;4.11;80.67
84374;BME280;74563;52.206;14.630;2024-01-06T05:38:06;100569.06;;;3.98;80.27
84374;BME280;74563;52.206;14.630;2024-01-06T05:40:31;100589.00;;;4.23;80.26
84374;BME280;74563;52.206;14.630;2024-01-06T05:42:57;100576.47;;;3.93;80.84
84374;BME280;74563;52.206;14.630;2024-01-06T05:45:22;100597.63;;;4.02;81.51
84374;BME280;74563;52.206;14.630;2024-01-06T05:47:48;100581.59;;;4.37;79.28
84374;BME280;74563;52.206;14.630;2024-01-06T05:50:16;100589.06;;;3.78;82.34
84374;BME280;74563;52.206;14.630;2024-01-06T05:52:41;100604.84;;;4.43;80.07
84374;BME280;74563;52.206;14.630;2024-01-06T05:55:07;100593.03;;;3.84;81.99
84374;BME280;74563;52.206;14.630;2024-01-06T05:57:32;100603.97;;;4.54;79.42
84374;BME280;74563;52.206;14.630;2024-01-06T05:59:58;100602.59;;;3.74;82.28
84374;BME280;74563;52.206;14.630;2024-01-06T06:02:23;100608.75;;;4.06;80.88
84374;BME280;74563;52.206;14.630;2024-01-06T06:04:49;100607.22;;;4.03;82.03
84374;BME280;74563;52.206;14.630;2024-01-06T06:07:14;100613.56;;;4.76;77.82
84374;BME280;74563;52.206;14.630;2024-01-06T06:09:39;100619.81;;;3.44;83.41
84374;BME280;74563;52.206;14.630;2024-01-06T06:12:05;100624.44;;;4.19;79.38
84374;BME280;74563;52.206;14.630;2024-01-06T06:14:31;100620.28;;;3.27;84.06
84374;BME280;74563;52.206;14.630;2024-01-06T06:16:56;100616.66;;;4.06;80.66
84374;BME280;74563;52.206;14.630;2024-01-06T06:19:21;100651.53;;;3.87;82.15
84374;BME280;74563;52.206;14.630;2024-01-06T06:21:47;100652.81;;;3.71;84.31
84374;BME280;74563;52.206;14.630;2024-01-06T06:24:12;100655.47;;;3.82;83.47
84374;BME280;74563;52.206;14.630;2024-01-06T06:26:38;100645.31;;;4.42;80.16
84374;BME280;74563;52.206;14.630;2024-01-06T06:29:04;100663.34;;;4.58;79.18
84374;BME280;74563;52.206;14.630;2024-01-06T06:31:29;100669.13;;;3.98;82.67
84374;BME280;74563;52.206;14.630;2024-01-06T06:33:54;100674.59;;;4.17;82.11
84374;BME280;74563;52.206;14.630;2024-01-06T06:36:19;100685.25;;;3.49;84.12
84374;BME280;74563;52.206;14.630;2024-01-06T06:38:45;100678.78;;;3.64;84.67
84374;BME280;74563;52.206;14.630;2024-01-06T06:41:10;100686.06;;;3.38;83.95
84374;BME280;74563;52.206;14.630;2024-01-06T06:43:35;100685.75;;;3.87;83.93
84374;BME280;74563;52.206;14.630;2024-01-06T06:46:01;100701.03;;;2.79;87.70
84374;BME280;74563;52.206;14.630;2024-01-06T06:48:26;100697.75;;;4.57;81.68
84374;BME280;74563;52.206;14.630;2024-01-06T06:50:51;100701.91;;;3.94;84.93
84374;BME280;74563;52.206;14.630;2024-01-06T06:53:16;100717.09;;;3.79;84.40
84374;BME280;74563;52.206;14.630;2024-01-06T06:55:42;100704.38;;;3.51;85.41
84374;BME280;74563;52.206;14.630;2024-01-06T06:58:07;100715.06;;;3.83;85.35
84374;BME280;74563;52.206;14.630;2024-01-06T07:00:33;100698.44;;;4.16;82.42
84374;BME280;74563;52.206;14.630;2024-01-06T07:02:58;100734.22;;;2.80;88.51
84374;BME280;74563;52.206;14.630;2024-01-06T07:05:23;100737.31;;;3.90;84.73
84374;BME280;74563;52.206;14.630;2024-01-06T07:07:49;100739.09;;;3.78;85.14
84374;BME280;74563;52.206;14.630;2024-01-06T07:10:14;100747.94;;;3.20;88.25
84374;BME280;74563;52.206;14.630;2024-01-06T07:12:39;100746.53;;;3.73;86.30
84374;BME280;74563;52.206;14.630;2024-01-06T07:15:05;100748.00;;;3.42;86.28
84374;BME280;74563;52.206;14.630;2024-01-06T07:17:30;100750.44;;;3.68;86.27
84374;BME280;74563;52.206;14.630;2024-01-06T07:19:55;100732.94;;;3.44;84.89
84374;BME280;74563;52.206;14.630;2024-01-06T07:22:21;100757.13;;;3.61;86.65
84374;BME280;74563;52.206;14.630;2024-01-06T07:24:46;100764.56;;;3.78;86.67
84374;BME280;74563;52.206;14.630;2024-01-06T07:27:12;100766.47;;;3.30;86.92
84374;BME280;74563;52.206;14.630;2024-01-06T07:29:37;100762.09;;;3.87;85.59
84374;BME280;74563;52.206;14.630;2024-01-06T07:32:03;100768.47;;;4.29;83.04
84374;BME280;74563;52.206;14.630;2024-01-06T07:34:29;100779.81;;;3.16;87.38
84374;BME280;74563;52.206;14.630;2024-01-06T07:36:54;100779.53;;;2.84;89.19
84374;BME280;74563;52.206;14.630;2024-01-06T07:39:19;100774.91;;;3.46;87.20
84374;BME280;74563;52.206;14.630;2024-01-06T07:41:45;100766.66;;;4.08;83.86
84374;BME280;74563;52.206;14.630;2024-01-06T07:44:12;100777.00;;;3.30;85.29
84374;BME280;74563;52.206;14.630;2024-01-06T07:46:38;100783.75;;;2.86;88.50
84374;BME280;74563;52.206;14.630;2024-01-06T07:49:05;100801.38;;;4.01;84.63
84374;BME280;74563;52.206;14.630;2024-01-06T07:51:30;100793.88;;;3.62;87.50
84374;BME280;74563;52.206;14.630;2024-01-06T07:53:55;100797.31;;;4.64;82.12
84374;BME280;74563;52.206;14.630;2024-01-06T07:56:21;100806.16;;;2.79;87.72
84374;BME280;74563;52.206;14.630;2024-01-06T07:58:46;100808.19;;;3.23;87.10
84374;BME280;74563;52.206;14.630;2024-01-06T08:01:11;100796.25;;;3.65;86.11
84374;BME280;74563;52.206;14.630;2024-01-06T08:03:36;100791.41;;;4.16;83.84
84374;BME280;74563;52.206;14.630;2024-01-06T08:06:02;100790.47;;;4.06;81.09
84374;BME280;74563;52.206;14.630;2024-01-06T08:08:31;100823.94;;;2.76;89.49
84374;BME280;74563;52.206;14.630;2024-01-06T08:10:56;100820.47;;;3.46;87.05
84374;BME280;74563;52.206;14.630;2024-01-06T08:13:21;100822.75;;;3.86;85.22
84374;BME280;74563;52.206;14.630;2024-01-06T08:15:47;100828.22;;;3.37;87.60
84374;BME280;74563;52.206;14.630;2024-01-06T08:18:12;100834.50;;;3.58;85.74
84374;BME280;74563;52.206;14.630;2024-01-06T08:20:37;100841.47;;;4.05;82.88
84374;BME280;74563;52.206;14.630;2024-01-06T08:23:02;100847.69;;;3.34;86.40
84374;BME280;74563;52.206;14.630;2024-01-06T08:25:28;100837.97;;;2.87;88.70
84374;BME280;74563;52.206;14.630;2024-01-06T08:27:53;100851.44;;;3.19;88.79
84374;BME280;74563;52.206;14.630;2024-01-06T08:30:19;100830.16;;;2.98;88.29
84374;BME280;74563;52.206;14.630;2024-01-06T08:32:44;100840.50;;;4.06;84.18
84374;BME280;74563;52.206;14.630;2024-01-06T08:35:10;100851.47;;;3.89;86.25
84374;BME280;74563;52.206;14.630;2024-01-06T08:37:35;100849.53;;;2.85;88.41
84374;BME280;74563;52.206;14.630;2024-01-06T08:40:00;100847.78;;;4.02;84.12
84374;BME280;74563;52.206;14.630;2024-01-06T08:42:26;100841.19;;;3.86;85.29
84374;BME280;74563;52.206;14.630;2024-01-06T08:44:51;100848.28;;;4.08;84.08
84374;BME280;74563;52.206;14.630;2024-01-06T08:47:16;100861.41;;;4.53;81.67
84374;BME280;74563;52.206;14.630;2024-01-06T08:49:42;100863.94;;;3.28;85.84
84374;BME280;74563;52.206;14.630;2024-01-06T08:52:07;100868.59;;;3.12;87.27
84374;BME280;74563;52.206;14.630;2024-01-06T08:54:32;100863.19;;;3.26;86.90
84374;BME280;74563;52.206;14.630;2024-01-06T08:56:58;100874.19;;;4.58;81.54
84374;BME280;74563;52.206;14.630;2024-01-06T08:59:23;100864.31;;;3.93;83.97
84374;BME280;74563;52.206;14.630;2024-01-06T09:01:48;100866.00;;;3.60;85.36
84374;BME280;74563;52.206;14.630;2024-01-06T09:04:14;100875.78;;;3.58;85.22
84374;BME280;74563;52.206;14.630;2024-01-06T09:06:40;100877.94;;;3.98;83.07
84374;BME280;74563;52.206;14.630;2024-01-06T09:09:06;100897.59;;;3.71;83.55
84374;BME280;74563;52.206;14.630;2024-01-06T09:11:32;100890.66;;;4.04;83.85
84374;BME280;74563;52.206;14.630;2024-01-06T09:13:58;100887.06;;;3.71;84.89
84374;BME280;74563;52.206;14.630;2024-01-06T09:16:23;100892.50;;;3.33;87.48
84374;BME280;74563;52.206;14.630;2024-01-06T09:18:48;100894.47;;;4.00;84.27
84374;BME280;74563;52.206;14.630;2024-01-06T09:21:14;100896.78;;;3.81;84.95
84374;BME280;74563;52.206;14.630;2024-01-06T09:23:40;100897.91;;;2.82;88.85
84374;BME280;74563;52.206;14.630;2024-01-06T09:26:05;100893.41;;;4.03;83.81
84374;BME280;74563;52.206;14.630;2024-01-06T09:28:31;100898.63;;;3.81;85.78
84374;BME280;74563;52.206;14.630;2024-01-06T09:30:56;100897.50;;;3.48;86.59
84374;BME280;74563;52.206;14.630;2024-01-06T09:33:22;100904.38;;;3.62;85.64
84374;BME280;74563;52.206;14.630;2024-01-06T09:35:48;100902.78;;;4.18;84.59
84374;BME280;74563;52.206;14.630;2024-01-06T09:38:13;100903.16;;;3.31;85.24
84374;BME280;74563;52.206;14.630;2024-01-06T09:40:42;100915.69;;;4.78;81.24
84374;BME280;74563;52.206;14.630;2024-01-06T09:43:08;100915.00;;;4.30;81.71
84374;BME280;74563;52.206;14.630;2024-01-06T09:45:34;100884.13;;;3.28;84.83
84374;BME280;74563;52.206;14.630;2024-01-06T09:48:10;100921.81;;;3.52;86.54
84374;BME280;74563;52.206;14.630;2024-01-06T09:50:35;100923.13;;;4.05;83.89
84374;BME280;74563;52.206;14.630;2024-01-06T09:53:02;100934.84;;;3.17;85.79
84374;BME280;74563;52.206;14.630;2024-01-06T09:55:30;100928.22;;;3.72;84.89
84374;BME280;74563;52.206;14.630;2024-01-06T09:57:56;100940.31;;;3.50;85.34
84374;BME280;74563;52.206;14.630;2024-01-06T10:00:21;100942.34;;;3.71;84.93
84374;BME280;74563;52.206;14.630;2024-01-06T10:02:48;100920.81;;;3.53;83.98
84374;BME280;74563;52.206;14.630;2024-01-06T10:05:15;100935.94;;;3.02;86.86
84374;BME280;74563;52.206;14.630;2024-01-06T10:07:42;100928.22;;;3.12;86.71
84374;BME280;74563;52.206;14.630;2024-01-06T10:10:09;100922.13;;;3.47;84.88
84374;BME280;74563;52.206;14.630;2024-01-06T10:12:37;100921.66;;;3.53;85.58
84374;BME280;74563;52.206;14.630;2024-01-06T10:15:02;100922.75;;;3.75;83.93
84374;BME280;74563;52.206;14.630;2024-01-06T10:17:28;100936.69;;;3.88;83.16
84374;BME280;74563;52.206;14.630;2024-01-06T10:19:53;100934.66;;;3.91;83.66
84374;BME280;74563;52.206;14.630;2024-01-06T10:22:19;100939.69;;;3.23;84.66
84374;BME280;74563;52.206;14.630;2024-01-06T10:24:45;100938.25;;;3.90;84.02
84374;BME280;74563;52.206;14.630;2024-01-06T10:27:11;100936.44;;;3.67;84.47
84374;BME280;74563;52.206;14.630;2024-01-06T10:29:36;100913.06;;;3.51;84.08
84374;BME280;74563;52.206;14.630;2024-01-06T10:32:02;100921.38;;;3.93;83.76
84374;BME280;74563;52.206;14.630;2024-01-06T10:34:28;100923.59;;;3.75;83.18
84374;BME280;74563;52.206;14.630;2024-01-06T10:36:54;100925.94;;;3.67;84.01
84374;BME280;74563;52.206;14.630;2024-01-06T10:39:20;100937.75;;;3.25;86.08
84374;BME280;74563;52.206;14.630;2024-01-06T10:41:48;100925.69;;;3.23;86.33
84374;BME280;74563;52.206;14.630;2024-01-06T10:44:14;100932.09;;;3.79;84.93
84374;BME280;74563;52.206;14.630;2024-01-06T10:46:40;100937.69;;;4.09;82.75
84374;BME280;74563;52.206;14.630;2024-01-06T10:49:06;100936.69;;;3.40;85.57
84374;BME280;74563;52.206;14.630;2024-01-06T10:51:37;100944.75;;;3.50;85.74
84374;BME280;74563;52.206;14.630;2024-01-06T10:54:02;100918.25;;;3.04;86.76
84374;BME280;74563;52.206;14.630;2024-01-06T10:56:29;100923.09;;;2.97;86.39
84374;BME280;74563;52.206;14.630;2024-01-06T10:58:56;100920.63;;;3.80;83.43
84374;BME280;74563;52.206;14.630;2024-01-06T11:01:23;100936.31;;;3.21;85.56
84374;BME280;74563;52.206;14.630;2024-01-06T11:03:53;100934.94;;;3.76;83.49
84374;BME280;74563;52.206;14.630;2024-01-06T11:06:19;100942.94;;;3.50;85.03
84374;BME280;74563;52.206;14.630;2024-01-06T11:09:01;100943.72;;;3.03;86.22
84374;BME280;74563;52.206;14.630;2024-01-06T11:11:28;100933.03;;;3.78;82.77
84374;BME280;74563;52.206;14.630;2024-01-06T11:16:46;100951.97;;;3.59;83.86
84374;BME280;74563;52.206;14.630;2024-01-06T11:19:41;100948.69;;;4.38;81.14
84374;BME280;74563;52.206;14.630;2024-01-06T11:22:26;100943.03;;;3.25;85.01
84374;BME280;74563;52.206;14.630;2024-01-06T11:24:55;100938.88;;;4.40;80.86
84374;BME280;74563;52.206;14.630;2024-01-06T11:27:26;100945.97;;;4.04;82.76
84374;BME280;74563;52.206;14.630;2024-01-06T11:29:54;100924.34;;;4.12;81.08
84374;BME280;74563;52.206;14.630;2024-01-06T11:32:30;100952.41;;;4.00;82.05
84374;BME280;74563;52.206;14.630;2024-01-06T11:35:06;100920.38;;;3.83;81.84
84374;BME280;74563;52.206;14.630;2024-01-06T11:37:35;100941.84;;;3.42;83.96
84374;BME280;74563;52.206;14.630;2024-01-06T11:45:29;100946.06;;;4.03;80.11
84374;BME280;74563;52.206;14.630;2024-01-06T11:47:59;100944.66;;;3.02;86.10
84374;BME280;74563;52.206;14.630;2024-01-06T11:50:26;100929.34;;;3.57;82.37
84374;BME280;74563;52.206;14.630;2024-01-06T11:52:51;100950.44;;;4.15;81.03
84374;BME280;74563;52.206;14.630;2024-01-06T11:55:18;100934.09;;;4.45;78.66
84374;BME280;74563;52.206;14.630;2024-01-06T11:57:44;100961.09;;;3.90;81.74
84374;BME280;74563;52.206;14.630;2024-01-06T12:00:10;100965.19;;;3.94;81.58
84374;BME280;74563;52.206;14.630;2024-01-06T12:02:36;100955.38;;;3.12;82.57
84374;BME280;74563;52.206;14.630;2024-01-06T12:05:01;100966.91;;;4.06;80.74
84374;BME280;74563;52.206;14.630;2024-01-06T12:07:27;100965.97;;;4.07;80.40
84374;BME280;74563;52.206;14.630;2024-01-06T12:10:01;100963.28;;;3.48;82.66
84374;BME280;74563;52.206;14.630;2024-01-06T12:12:26;100958.56;;;3.88;80.82
84374;BME280;74563;52.206;14.630;2024-01-06T12:14:52;100969.34;;;4.20;80.46
84374;BME280;74563;52.206;14.630;2024-01-06T12:17:17;100975.75;;;3.70;81.70
84374;BME280;74563;52.206;14.630;2024-01-06T12:19:42;100980.91;;;3.23;81.99
84374;BME280;74563;52.206;14.630;2024-01-06T12:22:11;100977.81;;;4.13;79.74
84374;BME280;74563;52.206;14.630;2024-01-06T12:24:38;100977.28;;;3.00;82.80
84374;BME280;74563;52.206;14.630;2024-01-06T12:27:09;100972.56;;;3.41;81.28
84374;BME280;74563;52.206;14.630;2024-01-06T12:29:38;100991.47;;;3.46;82.29
84374;BME280;74563;52.206;14.630;2024-01-06T12:32:05;101002.88;;;4.18;78.89
84374;BME280;74563;52.206;14.630;2024-01-06T12:34:31;100999.28;;;3.72;80.71
84374;BME280;74563;52.206;14.630;2024-01-06T12:36:56;100979.03;;;3.85;79.63
84374;BME280;74563;52.206;14.630;2024-01-06T12:39:21;100989.34;;;3.88;80.05
84374;BME280;74563;52.206;14.630;2024-01-06T12:41:48;101001.94;;;4.54;77.74
84374;BME280;74563;52.206;14.630;2024-01-06T12:44:15;101005.44;;;3.23;81.94
84374;BME280;74563;52.206;14.630;2024-01-06T12:46:41;101004.41;;;2.75;83.52
84374;BME280;74563;52.206;14.630;2024-01-06T12:49:06;101009.63;;;3.38;81.14
84374;BME280;74563;52.206;14.630;2024-01-06T12:51:31;101001.63;;;3.15;82.70